Time;durP1;ratioP1;P1;durP2;ratioP2;P2;SDS_P1;SDS_P2;PMS_P1;PMS_P2;Temp;Humidity;BMP_temperature;BMP_pressure;BME280_temperature;BME280_humidity;BME280_pressure;Samples;Min_cycle;Max_cycle;Signal;HPM_P1;HPM_P2
2023/01/09 00:02:15;;;;;;;3.67;2.30;;;;;;;-11.75;63.97;103005.41;1869075;77;21378;-55
2023/01/09 00:04:44;;;;;;;3.77;2.50;;;;;;;-11.74;63.95;103005.94;1854964;75;21153;-55
2023/01/09 00:07:12;;;;;;;5.37;2.92;;;;;;;-11.72;63.97;103014.97;1838414;77;21107;-58
2023/01/09 00:09:41;;;;;;;7.72;2.55;;;;;;;-11.72;63.99;103018.78;1831602;78;21498;-58
2023/01/09 00:12:10;;;;;;;5.00;1.62;;;;;;;-11.75;64.12;103014.69;1831502;78;21165;-57
2023/01/09 00:14:38;;;;;;;1.80;1.65;;;;;;;-11.76;64.12;103015.08;1831478;78;21132;-58
2023/01/09 00:17:07;;;;;;;4.28;1.90;;;;;;;-11.77;64.13;103017.09;1827200;78;21197;-57
2023/01/09 00:19:35;;;;;;;3.10;2.27;;;;;;;-11.79;64.13;103017.73;1825374;78;21168;-57
2023/01/09 00:22:05;;;;;;;3.10;2.22;;;;;;;-11.82;64.14;103015.83;1830680;77;21471;-58
2023/01/09 00:24:33;;;;;;;8.85;2.05;;;;;;;-11.86;64.15;103014.66;1826563;77;21019;-59
2023/01/09 00:27:03;;;;;;;2.87;1.82;;;;;;;-11.89;64.26;103014.77;1838024;77;21138;-57
2023/01/09 00:29:32;;;;;;;8.00;3.35;;;;;;;-11.89;64.24;102999.13;1861956;77;21518;-58
2023/01/09 00:32:00;;;;;;;3.10;1.75;;;;;;;-11.90;64.25;102992.28;1833529;77;21122;-58
2023/01/09 00:34:29;;;;;;;6.33;3.15;;;;;;;-11.92;64.26;102982.76;1861185;77;21154;-58
2023/01/09 00:36:58;;;;;;;2.45;1.65;;;;;;;-11.92;64.20;102973.86;1838559;77;21173;-55
2023/01/09 00:39:26;;;;;;;5.45;1.85;;;;;;;-11.94;64.22;102974.11;1825414;78;21039;-52
2023/01/09 00:41:57;;;;;;;2.75;1.32;;;;;;;-11.97;64.23;102967.48;1825393;78;21150;-50
2023/01/09 00:44:29;;;;;;;3.62;1.98;;;;;;;-11.98;64.23;102960.25;1860434;77;21127;-55
2023/01/09 00:47:00;;;;;;;5.60;3.10;;;;;;;-11.99;64.23;102963.92;1861534;76;21128;-55
2023/01/09 00:49:31;;;;;;;7.75;3.47;;;;;;;-12.05;64.32;102966.42;1863009;77;21055;-51
2023/01/09 00:52:01;;;;;;;3.90;2.85;;;;;;;-12.08;64.31;102980.14;1862601;76;21122;-56
2023/01/09 00:54:32;;;;;;;5.78;1.75;;;;;;;-12.10;64.39;102985.44;1862954;77;21569;-51
2023/01/09 00:57:01;;;;;;;6.60;2.77;;;;;;;-12.15;64.51;102989.59;1862983;77;21139;-55
2023/01/09 00:59:29;;;;;;;3.25;2.15;;;;;;;-12.15;64.50;102985.44;1863076;76;21200;-56
2023/01/09 01:01:58;;;;;;;19.55;2.00;;;;;;;-12.14;64.41;102979.58;1868918;77;21097;-54
2023/01/09 01:10:00;;;;;;;3.92;2.37;;;;;;;-12.12;64.16;102974.25;1869043;77;21038;-58
2023/01/09 01:12:29;;;;;;;4.65;2.58;;;;;;;-12.12;64.13;102972.98;1869091;77;21117;-52
2023/01/09 01:14:58;;;;;;;5.42;2.27;;;;;;;-12.12;64.12;102970.83;1868937;77;21093;-54
2023/01/09 01:17:26;;;;;;;5.40;3.33;;;;;;;-12.13;64.08;102969.95;1863811;77;21157;-52
2023/01/09 01:19:55;;;;;;;1.57;1.50;;;;;;;-12.14;64.12;102974.50;1859673;77;21086;-54
2023/01/09 01:22:24;;;;;;;11.48;3.77;;;;;;;-12.14;64.10;102975.77;1859642;77;21219;-51
2023/01/09 01:24:53;;;;;;;6.03;1.42;;;;;;;-12.13;64.09;102980.11;1859635;77;21098;-58
2023/01/09 01:27:21;;;;;;;5.58;3.67;;;;;;;-12.12;64.10;102979.72;1859660;77;21191;-58
2023/01/09 01:29:51;;;;;;;10.03;2.77;;;;;;;-12.15;64.15;102981.63;1859668;77;21058;-58
2023/01/09 01:32:19;;;;;;;4.70;1.65;;;;;;;-12.18;64.25;102979.19;1859699;77;21199;-56
2023/01/09 01:34:48;;;;;;;1.87;1.75;;;;;;;-12.19;64.26;102974.46;1859549;77;21049;-57
2023/01/09 01:37:17;;;;;;;4.03;2.92;;;;;;;-12.17;64.21;102978.06;1859680;77;21113;-58
2023/01/09 01:39:46;;;;;;;8.03;3.93;;;;;;;-12.18;64.14;102986.42;1859676;77;21082;-59
2023/01/09 01:42:15;;;;;;;3.98;2.45;;;;;;;-12.21;64.19;102981.05;1859660;77;21141;-60
2023/01/09 01:45:03;;;;;;;5.08;2.37;;;;;;;-12.21;64.24;102981.05;1859452;77;21173;-58
2023/01/09 01:47:51;;;;;;;4.50;3.08;;;;;;;-12.23;64.30;102977.49;1859385;77;21633;-58
2023/01/09 01:50:39;;;;;;;3.77;3.47;;;;;;;-12.23;64.31;102983.84;1859310;77;21067;-55
2023/01/09 01:53:10;;;;;;;5.00;2.50;;;;;;;-12.25;64.34;102984.08;1859392;77;22290;-56
2023/01/09 01:55:42;;;;;;;1.42;1.42;;;;;;;-12.24;64.35;102980.80;1859204;77;21130;-57
2023/01/09 01:58:14;;;;;;;4.85;2.45;;;;;;;-12.23;64.32;102976.22;1859398;77;21488;-57
2023/01/09 02:00:45;;;;;;;4.78;2.08;;;;;;;-12.24;64.29;102974.45;1859353;77;21039;-57
2023/01/09 02:03:17;;;;;;;2.02;1.82;;;;;;;-12.27;64.32;102976.33;1859220;77;21193;-57
2023/01/09 02:05:45;;;;;;;3.65;2.45;;;;;;;-12.27;64.35;102981.79;1859366;77;21056;-55
2023/01/09 02:08:14;;;;;;;5.87;3.27;;;;;;;-12.27;64.37;102981.79;1859327;77;21146;-56
2023/01/09 02:10:45;;;;;;;2.65;1.57;;;;;;;-12.27;64.38;102975.44;1859326;77;21135;-56
2023/01/09 02:13:14;;;;;;;1.80;1.15;;;;;;;-12.25;64.40;102979.01;1859377;77;21553;-57
2023/01/09 02:15:49;;;;;;;5.37;2.67;;;;;;;-12.25;64.34;102989.16;1859315;77;21142;-57
2023/01/09 02:18:29;;;;;;;5.55;2.90;;;;;;;-12.24;64.32;102993.50;1864813;75;21743;-57
2023/01/09 02:21:03;;;;;;;1.70;1.15;;;;;;;-12.25;64.33;102992.59;1868407;76;21123;-57
2023/01/09 02:24:06;;;;;;;7.03;3.22;;;;;;;-12.24;64.26;102988.42;1867561;75;21616;-49
2023/01/09 02:26:53;;;;;;;6.40;2.67;;;;;;;-12.26;64.32;102989.94;1864574;77;21145;-50
2023/01/09 02:29:36;;;;;;;6.08;4.95;;;;;;;-12.26;64.32;102986.13;1864910;76;21067;-51
2023/01/09 02:32:26;;;;;;;6.00;2.72;;;;;;;-12.25;64.28;102994.24;1837934;78;21654;-50
2023/01/09 02:35:14;;;;;;;2.55;2.35;;;;;;;-12.26;64.27;102992.48;1837178;78;21063;-50
2023/01/09 02:38:04;;;;;;;7.58;3.15;;;;;;;-12.26;64.22;103000.09;1837393;77;21603;-50
2023/01/09 02:40:44;;;;;;;6.15;3.52;;;;;;;-12.28;64.19;102996.50;1837225;78;21232;-52
2023/01/09 02:43:14;;;;;;;2.60;2.33;;;;;;;-12.28;64.23;103002.84;1856838;77;21146;-55
2023/01/09 02:45:43;;;;;;;4.62;2.75;;;;;;;-12.28;64.32;103001.58;1868842;77;21509;-54
2023/01/09 02:48:11;;;;;;;5.10;1.67;;;;;;;-12.28;64.35;103002.84;1868960;77;21206;-49
2023/01/09 02:50:49;;;;;;;1.80;1.15;;;;;;;-12.27;64.30;102998.30;1868970;77;21059;-52
2023/01/09 02:53:20;;;;;;;8.98;3.45;;;;;;;-12.28;64.25;102996.50;1868963;77;21117;-52
2023/01/09 02:56:07;;;;;;;4.60;2.45;;;;;;;-12.29;64.26;103002.34;1867887;77;21129;-52
2023/01/09 02:59:00;;;;;;;4.42;2.83;;;;;;;-12.31;64.29;102995.86;1867329;76;21063;-52
2023/01/09 03:01:34;;;;;;;2.52;1.77;;;;;;;-12.30;64.35;102996.73;1878547;75;21192;-52
2023/01/09 03:04:32;;;;;;;13.00;3.95;;;;;;;-12.30;64.43;102986.58;1900813;75;21080;-53
2023/01/09 03:07:09;;;;;;;3.33;3.12;;;;;;;-12.30;64.44;102995.47;1899451;75;21409;-53
2023/01/09 03:09:41;;;;;;;11.22;2.52;;;;;;;-12.32;64.45;102991.91;1883823;74;21044;-49
2023/01/09 03:12:17;;;;;;;12.98;2.27;;;;;;;-12.33;64.46;102993.95;1869023;77;21049;-54
2023/01/09 03:14:48;;;;;;;11.60;4.70;;;;;;;-12.36;64.48;102991.12;1863809;77;21139;-49
2023/01/09 03:17:25;;;;;;;3.40;2.72;;;;;;;-12.35;64.51;102999.27;1868986;77;21123;-47
2023/01/09 03:19:56;;;;;;;2.52;1.40;;;;;;;-12.38;64.55;102996.45;1860063;76;21141;-49
2023/01/09 03:22:25;;;;;;;2.90;1.20;;;;;;;-12.38;64.54;102993.52;1833849;77;21038;-49
2023/01/09 03:24:54;;;;;;;4.78;3.22;;;;;;;-12.37;64.60;103005.83;1833931;78;21577;-49
2023/01/09 03:27:23;;;;;;;6.78;3.37;;;;;;;-12.35;64.62;103003.08;1866661;77;21596;-52
2023/01/09 03:29:52;;;;;;;2.65;2.00;;;;;;;-12.33;64.60;103008.80;1867709;77;21107;-49
2023/01/09 03:32:21;;;;;;;2.62;2.30;;;;;;;-12.32;64.61;103004.59;1851629;77;21048;-52
2023/01/09 03:34:49;;;;;;;11.15;3.72;;;;;;;-12.31;64.58;103010.20;1863813;77;21127;-54
2023/01/09 03:37:18;;;;;;;7.80;3.27;;;;;;;-12.30;64.59;103013.24;1868894;77;21106;-52
2023/01/09 03:39:47;;;;;;;8.83;4.40;;;;;;;-12.32;64.71;103013.48;1868747;77;21123;-51
2023/01/09 03:42:15;;;;;;;7.75;2.67;;;;;;;-12.31;64.87;103008.94;1868852;77;21607;-54
2023/01/09 03:44:44;;;;;;;2.23;2.07;;;;;;;-12.28;64.84;103015.19;1868937;77;21122;-54
2023/01/09 03:47:13;;;;;;;2.17;2.08;;;;;;;-12.24;64.75;103011.28;1865544;75;21190;-52
2023/01/09 03:49:41;;;;;;;1.32;1.22;;;;;;;-12.21;64.64;103006.45;1845235;77;21162;-53
2023/01/09 03:52:12;;;;;;;3.27;2.35;;;;;;;-12.20;64.56;103003.17;1847838;77;21125;-53
2023/01/09 03:54:40;;;;;;;3.60;2.10;;;;;;;-12.20;64.57;102996.83;1880110;75;21075;-53
2023/01/09 03:57:11;;;;;;;4.62;3.30;;;;;;;-12.19;64.55;102996.44;1856117;75;21095;-51
2023/01/09 03:59:39;;;;;;;3.22;2.27;;;;;;;-12.17;64.67;102997.11;1839899;76;21067;-57
2023/01/09 04:02:08;;;;;;;6.60;2.83;;;;;;;-12.10;64.66;102995.98;1868829;77;21063;-57
2023/01/09 04:04:36;;;;;;;9.90;2.80;;;;;;;-12.03;64.70;103002.13;1859067;76;21085;-57
2023/01/09 04:07:05;;;;;;;2.37;1.52;;;;;;;-11.97;64.79;103000.12;1839413;77;21079;-54
2023/01/09 04:09:34;;;;;;;6.97;2.58;;;;;;;-11.91;64.70;102994.72;1838330;77;21071;-54
2023/01/09 04:12:02;;;;;;;7.45;2.35;;;;;;;-11.89;64.62;102991.89;1851372;77;21055;-54
2023/01/09 04:14:31;;;;;;;9.33;3.98;;;;;;;-11.90;64.57;102991.02;1868885;75;21055;-54
2023/01/09 04:17:00;;;;;;;10.58;4.15;;;;;;;-11.90;64.56;102996.48;1868906;77;21052;-54
2023/01/09 04:19:28;;;;;;;10.98;4.75;;;;;;;-11.93;64.76;103001.28;1850467;77;21231;-55
2023/01/09 04:21:57;;;;;;;2.33;1.77;;;;;;;-11.93;64.75;102998.74;1837163;77;21056;-51
2023/01/09 04:24:27;;;;;;;10.88;3.80;;;;;;;-11.98;64.75;103000.02;1830454;78;21081;-52
2023/01/09 04:26:56;;;;;;;6.80;4.35;;;;;;;-12.09;64.89;102996.13;1842863;77;21565;-53
2023/01/09 04:29:24;;;;;;;16.65;6.65;;;;;;;-12.14;64.82;102998.63;1853431;77;21096;-56
2023/01/09 04:31:53;;;;;;;9.35;5.45;;;;;;;-12.20;64.75;102996.83;1858748;76;21103;-56
2023/01/09 04:34:24;;;;;;;16.45;4.70;;;;;;;-12.21;64.82;102995.02;1848069;77;21125;-55
2023/01/09 04:36:53;;;;;;;2.67;2.35;;;;;;;-12.18;64.84;102998.23;1849093;77;21240;-54
2023/01/09 04:39:22;;;;;;;8.28;3.77;;;;;;;-12.16;64.89;102992.52;1863172;77;21491;-55
2023/01/09 04:41:51;;;;;;;10.63;3.60;;;;;;;-12.13;64.74;102997.89;1862948;77;21063;-56
2023/01/09 04:44:25;;;;;;;2.83;2.62;;;;;;;-12.12;64.68;102994.58;1862985;77;21518;-56
2023/01/09 04:46:54;;;;;;;4.25;4.05;;;;;;;-12.11;64.80;102992.95;1863224;77;21640;-55
2023/01/09 04:49:23;;;;;;;8.85;3.70;;;;;;;-12.08;64.74;102988.12;1862969;77;21483;-56
2023/01/09 04:51:51;;;;;;;4.25;2.98;;;;;;;-12.08;64.64;102993.20;1863025;77;21209;-55
2023/01/09 04:54:21;;;;;;;1.30;1.22;;;;;;;-12.11;64.67;102995.10;1863096;77;21184;-56
2023/01/09 04:56:50;;;;;;;7.17;4.12;;;;;;;-12.11;64.56;102989.14;1862980;77;21111;-55
2023/01/09 04:59:19;;;;;;;2.75;2.45;;;;;;;-12.17;64.62;102992.03;1862954;77;21126;-55
2023/01/09 05:01:47;;;;;;;5.55;3.60;;;;;;;-12.23;64.82;102991.45;1863129;77;21113;-55
2023/01/09 05:04:16;;;;;;;6.30;2.00;;;;;;;-12.28;64.86;102991.42;1862972;77;21083;-54
2023/01/09 05:06:45;;;;;;;16.70;4.30;;;;;;;-12.30;64.86;102984.05;1862940;77;21024;-54
2023/01/09 05:09:13;;;;;;;9.33;3.60;;;;;;;-12.27;64.73;102984.33;1862980;77;21570;-54
2023/01/09 05:11:42;;;;;;;24.70;4.75;;;;;;;-12.24;64.69;102984.23;1862916;77;21052;-55
2023/01/09 05:14:11;;;;;;;15.68;6.08;;;;;;;-12.21;64.67;102982.33;1862998;77;21063;-56
2023/01/09 05:16:40;;;;;;;7.70;5.12;;;;;;;-12.26;64.90;102979.78;1863559;77;21432;-51
2023/01/09 05:19:09;;;;;;;2.65;2.37;;;;;;;-12.25;64.96;102983.70;1863709;77;21056;-56
2023/01/09 05:21:37;;;;;;;8.13;3.42;;;;;;;-12.18;65.00;102986.42;1863939;77;21141;-48
2023/01/09 05:24:06;;;;;;;16.67;6.62;;;;;;;-12.12;64.90;102988.22;1863809;77;21122;-51
2023/01/09 05:26:35;;;;;;;20.72;7.85;;;;;;;-12.10;64.81;102990.52;1863906;77;21106;-51
2023/01/09 05:29:04;;;;;;;27.60;9.85;;;;;;;-12.15;64.73;102989.24;1863766;77;21056;-55
2023/01/09 05:31:32;;;;;;;13.25;6.75;;;;;;;-12.23;64.72;102994.00;1863774;77;21122;-55
2023/01/09 05:34:01;;;;;;;10.70;4.90;;;;;;;-12.27;64.76;103000.83;1863696;77;21056;-55
2023/01/09 05:36:30;;;;;;;4.47;2.45;;;;;;;-12.18;64.81;102996.97;1863785;77;21105;-57
2023/01/09 05:38:59;;;;;;;12.53;6.28;;;;;;;-12.09;64.80;102997.39;1863766;77;21107;-56
2023/01/09 05:41:29;;;;;;;12.88;5.03;;;;;;;-12.07;64.73;102995.87;1863664;77;21119;-57
2023/01/09 05:43:58;;;;;;;18.42;6.10;;;;;;;-11.99;64.65;102993.13;1863847;77;21055;-56
2023/01/09 05:46:27;;;;;;;23.42;9.00;;;;;;;-11.95;64.92;102985.02;1864003;77;21056;-57
2023/01/09 05:48:56;;;;;;;29.48;10.03;;;;;;;-11.74;64.94;102991.08;1863768;77;21091;-56
2023/01/09 05:51:24;;;;;;;24.85;10.88;;;;;;;-11.56;64.70;102994.30;1863678;77;21060;-57
2023/01/09 05:53:53;;;;;;;22.82;6.62;;;;;;;-11.31;64.53;102992.23;1863812;77;21055;-57
2023/01/09 05:56:22;;;;;;;4.58;2.20;;;;;;;-11.05;64.21;102991.91;1863828;77;21071;-55
2023/01/09 05:58:52;;;;;;;4.92;3.45;;;;;;;-10.75;64.02;102987.61;1863725;77;21048;-57
2023/01/09 06:01:21;;;;;;;13.60;6.95;;;;;;;-10.46;63.63;102989.16;1863774;77;21081;-57
2023/01/09 06:03:49;;;;;;;26.87;8.78;;;;;;;-10.01;63.51;102985.97;1863644;77;21066;-57
2023/01/09 06:06:18;;;;;;;16.82;6.72;;;;;;;-9.60;62.83;102973.11;1863829;77;21091;-56
2023/01/09 06:08:47;;;;;;;10.75;7.58;;;;;;;-8.96;62.34;102970.44;1863739;77;21154;-56
2023/01/09 06:11:15;;;;;;;38.58;10.82;;;;;;;-8.16;61.01;102964.83;1863761;77;21055;-55
2023/01/09 06:13:44;;;;;;;3.98;1.85;;;;;;;-7.27;59.67;102965.55;1863940;77;21052;-55
2023/01/09 06:16:13;;;;;;;5.62;3.33;;;;;;;-6.50;58.96;102970.36;1863664;77;21056;-54
2023/01/09 06:18:41;;;;;;;20.82;7.17;;;;;;;-5.66;58.71;102968.91;1863690;77;21051;-56
2023/01/09 06:21:10;;;;;;;25.27;10.63;;;;;;;-4.91;58.44;102958.48;1863703;77;21079;-55
2023/01/09 06:23:39;;;;;;;35.15;13.48;;;;;;;-4.20;57.93;102950.65;1863740;77;21060;-55
2023/01/09 06:26:07;;;;;;;10.43;5.08;;;;;;;-3.85;56.13;102943.12;1863712;77;21122;-56
2023/01/09 06:28:36;;;;;;;25.68;7.22;;;;;;;-3.61;55.07;102954.78;1863743;77;21909;-57
2023/01/09 06:31:05;;;;;;;20.52;3.35;;;;;;;-3.07;55.11;102954.20;1863800;77;21067;-56
2023/01/09 06:33:34;;;;;;;22.32;7.20;;;;;;;-2.71;54.52;102950.06;1863848;77;21545;-56
2023/01/09 06:36:03;;;;;;;22.25;7.08;;;;;;;-2.36;54.43;102947.95;1863779;77;21048;-56
2023/01/09 06:38:31;;;;;;;18.73;5.62;;;;;;;-2.11;53.99;102945.28;1863772;77;21059;-52
2023/01/09 06:41:00;;;;;;;12.78;5.28;;;;;;;-1.64;53.92;102938.91;1863617;77;21134;-53
2023/01/09 06:43:29;;;;;;;24.90;8.18;;;;;;;-1.18;53.28;102933.25;1863651;77;21028;-53
2023/01/09 06:45:58;;;;;;;10.40;4.67;;;;;;;-1.18;52.59;102935.84;1863766;77;21095;-53
2023/01/09 06:48:27;;;;;;;12.80;5.75;;;;;;;-1.23;52.77;102938.61;1863788;77;21176;-52
2023/01/09 06:50:55;;;;;;;19.82;6.45;;;;;;;-0.30;52.33;102927.03;1863835;77;21153;-54
2023/01/09 06:53:24;;;;;;;16.02;6.42;;;;;;;-0.30;52.33;102927.03;1863831;77;21035;-54
2023/01/09 06:55:53;;;;;;;20.72;7.45;;;;;;;-0.03;52.42;102928.14;1863611;77;21052;-56
2023/01/09 06:58:22;;;;;;;14.87;6.67;;;;;;;0.50;52.41;102928.45;1863759;77;21056;-55
2023/01/09 07:00:52;;;;;;;10.03;3.95;;;;;;;0.94;52.04;102932.19;1863689;77;21080;-55
2023/01/09 07:03:21;;;;;;;4.33;1.30;;;;;;;1.40;51.60;102920.81;1863667;77;21063;-55
2023/01/09 07:05:50;;;;;;;12.65;4.78;;;;;;;1.88;51.07;102917.19;1863799;77;21482;-56
2023/01/09 07:08:19;;;;;;;17.07;6.90;;;;;;;1.88;50.06;102920.69;1863678;77;21055;-55
2023/01/09 07:10:48;;;;;;;13.28;4.37;;;;;;;2.06;49.60;102920.78;1863684;77;21079;-55
2023/01/09 07:13:16;;;;;;;13.65;5.78;;;;;;;2.29;48.88;102921.08;1863854;77;21087;-53
2023/01/09 07:15:45;;;;;;;14.90;6.10;;;;;;;2.69;49.08;102919.66;1863817;77;21052;-56
2023/01/09 07:18:14;;;;;;;12.47;5.35;;;;;;;3.05;48.20;102911.09;1863679;77;21056;-55
2023/01/09 07:20:43;;;;;;;19.35;7.45;;;;;;;3.19;47.70;102914.08;1864041;76;21121;-56
2023/01/09 07:23:13;;;;;;;11.10;4.97;;;;;;;3.37;47.70;102908.45;1869861;77;21661;-56
2023/01/09 07:25:43;;;;;;;17.32;6.65;;;;;;;3.77;47.35;102914.65;1869828;77;21531;-56
2023/01/09 07:28:12;;;;;;;14.05;5.50;;;;;;;3.95;46.73;102908.13;1869256;76;21058;-56
2023/01/09 07:30:41;;;;;;;13.00;6.00;;;;;;;4.19;45.96;102908.67;1869842;77;21126;-56
2023/01/09 07:33:10;;;;;;;9.38;4.60;;;;;;;4.07;43.21;102908.39;1869858;77;21563;-55
2023/01/09 07:35:38;;;;;;;11.95;5.33;;;;;;;3.72;43.53;102900.63;1869741;77;21166;-55
2023/01/09 07:38:07;;;;;;;6.53;2.37;;;;;;;3.55;43.01;102901.95;1869712;77;21089;-56
2023/01/09 07:40:35;;;;;;;9.78;4.17;;;;;;;3.51;42.67;102903.59;1869857;77;21087;-55
2023/01/09 07:43:04;;;;;;;8.55;3.55;;;;;;;3.32;41.71;102893.15;1869832;77;21542;-55
2023/01/09 07:45:33;;;;;;;15.60;6.33;;;;;;;3.20;41.30;102899.33;1869705;77;21059;-55
2023/01/09 07:48:02;;;;;;;10.95;4.10;;;;;;;3.31;41.75;102892.67;1869630;77;21125;-58
2023/01/09 07:50:32;;;;;;;3.27;2.55;;;;;;;3.64;41.36;102896.53;1869470;75;21090;-58
2023/01/09 07:53:00;;;;;;;11.38;4.75;;;;;;;3.88;40.98;102894.49;1869887;77;21027;-56
2023/01/09 07:55:29;;;;;;;9.25;4.10;;;;;;;4.04;40.99;102892.70;1869854;77;21090;-56
2023/01/09 07:57:58;;;;;;;3.05;2.15;;;;;;;4.20;40.38;102888.25;1869782;77;21119;-56
2023/01/09 08:00:27;;;;;;;9.48;4.50;;;;;;;4.23;39.67;102890.06;1869828;77;21211;-57
2023/01/09 08:02:55;;;;;;;10.35;6.33;;;;;;;4.26;39.50;102891.45;1869837;77;21114;-56
2023/01/09 08:05:24;;;;;;;8.35;4.25;;;;;;;4.42;39.21;102893.94;1869904;77;21055;-57
2023/01/09 08:07:53;;;;;;;11.95;4.65;;;;;;;4.69;38.58;102891.45;1869844;77;21088;-57
2023/01/09 08:10:21;;;;;;;11.40;4.78;;;;;;;4.63;38.41;102892.21;1869816;77;21103;-56
2023/01/09 08:12:52;;;;;;;14.07;6.53;;;;;;;4.59;38.44;102883.44;1869790;77;21098;-55
2023/01/09 08:15:20;;;;;;;10.82;4.22;;;;;;;4.13;39.16;102885.08;1869537;74;21090;-55
2023/01/09 08:17:49;;;;;;;5.42;2.85;;;;;;;4.19;38.48;102876.08;1869774;77;21055;-55
2023/01/09 08:20:18;;;;;;;10.93;4.78;;;;;;;4.22;37.57;102878.77;1869877;77;21150;-57
2023/01/09 08:22:48;;;;;;;11.73;4.58;;;;;;;4.37;37.61;102866.87;1869856;77;21087;-56
2023/01/09 08:25:18;;;;;;;7.80;3.60;;;;;;;4.85;37.89;102876.55;1869907;77;21055;-58
2023/01/09 08:27:46;;;;;;;16.77;7.22;;;;;;;4.97;36.37;102870.23;1869698;77;21717;-55
2023/01/09 08:30:16;;;;;;;9.10;5.10;;;;;;;4.92;36.71;102866.64;1869914;77;21048;-55
2023/01/09 08:32:54;;;;;;;11.85;5.62;;;;;;;4.93;36.21;102865.81;1869991;77;21051;-56
2023/01/09 08:35:22;;;;;;;10.15;2.45;;;;;;;4.95;36.47;102869.76;1869893;77;21068;-56
2023/01/09 08:37:51;;;;;;;8.93;4.92;;;;;;;5.34;36.15;102861.73;1869793;77;21117;-56
2023/01/09 08:40:20;;;;;;;11.22;3.35;;;;;;;5.63;36.23;102860.02;1869670;77;21203;-56
2023/01/09 08:48:22;;;;;;;13.55;4.50;;;;;;;6.42;35.71;102838.47;1869709;77;21079;-59
2023/01/09 08:50:52;;;;;;;17.98;5.08;;;;;;;6.63;35.60;102830.41;1869787;77;21122;-58
2023/01/09 08:53:21;;;;;;;7.20;3.98;;;;;;;6.86;35.45;102827.61;1869978;77;21067;-58
2023/01/09 08:55:50;;;;;;;9.35;4.53;;;;;;;7.13;35.22;102823.47;1870012;77;21138;-56
2023/01/09 08:58:18;;;;;;;19.90;8.43;;;;;;;6.95;34.51;102827.70;1869798;77;21146;-56
2023/01/09 09:00:47;;;;;;;6.65;3.05;;;;;;;6.75;34.52;102818.73;1869794;77;21080;-59
2023/01/09 09:03:16;;;;;;;6.10;2.22;;;;;;;7.01;34.82;102824.25;1869809;77;21577;-57
2023/01/09 09:05:45;;;;;;;17.02;5.30;;;;;;;6.84;34.42;102822.79;1869780;77;21079;-56
2023/01/09 09:08:15;;;;;;;11.05;5.20;;;;;;;6.74;34.44;102828.78;1869792;77;21056;-57
2023/01/09 09:10:44;;;;;;;13.95;5.65;;;;;;;5.67;35.52;102822.61;1869787;77;21108;-57
2023/01/09 09:13:12;;;;;;;16.55;5.90;;;;;;;6.39;35.21;102821.41;1869814;77;21051;-57
2023/01/09 09:15:41;;;;;;;7.03;4.22;;;;;;;7.10;34.88;102815.58;1869809;77;21067;-57
2023/01/09 09:18:10;;;;;;;16.95;6.92;;;;;;;7.50;34.02;102813.27;1869772;77;21110;-57
2023/01/09 09:20:39;;;;;;;13.00;6.28;;;;;;;7.60;33.82;102808.55;1870026;77;21255;-57
2023/01/09 09:23:08;;;;;;;12.23;5.55;;;;;;;8.15;34.18;102801.38;1867129;77;21549;-57
2023/01/09 09:25:38;;;;;;;13.05;6.12;;;;;;;8.71;33.92;102798.53;1863874;77;21170;-57
2023/01/09 09:28:07;;;;;;;10.32;4.53;;;;;;;7.60;34.59;102795.44;1863768;77;21483;-57
2023/01/09 09:30:37;;;;;;;15.85;6.67;;;;;;;5.88;35.96;102804.17;1863804;77;21514;-57
2023/01/09 09:33:06;;;;;;;8.33;5.33;;;;;;;4.29;37.42;102800.64;1863752;77;21083;-56
2023/01/09 09:35:35;;;;;;;17.75;7.62;;;;;;;5.34;36.95;102787.27;1863920;77;21067;-56
2023/01/09 09:38:05;;;;;;;27.05;6.53;;;;;;;6.80;35.77;102781.70;1863754;77;21084;-56
2023/01/09 09:41:05;;;;;;;9.28;3.87;;;;;;;7.56;35.03;102777.91;1863613;77;21150;-57
2023/01/09 09:47:01;;;;;;;12.70;4.05;;;;;;;5.66;36.49;102778.16;1863631;77;21510;-57
2023/01/09 09:49:35;;;;;;;14.43;5.58;;;;;;;6.51;35.34;102783.61;1863634;74;21064;-56
2023/01/09 09:52:08;;;;;;;9.90;3.83;;;;;;;4.69;36.93;102781.84;1863667;77;21542;-56
2023/01/09 09:54:43;;;;;;;11.73;4.20;;;;;;;4.23;38.36;102785.32;1863565;77;21125;-58
2023/01/09 09:57:14;;;;;;;6.15;2.92;;;;;;;5.31;36.56;102792.48;1863119;73;21028;-58
2023/01/09 09:59:47;;;;;;;7.95;3.60;;;;;;;3.54;37.22;102792.08;1863782;77;21023;-56
2023/01/09 10:02:31;;;;;;;10.88;5.17;;;;;;;2.84;38.34;102789.50;1863804;77;21130;-57
2023/01/09 10:05:12;;;;;;;6.80;2.92;;;;;;;4.42;37.13;102785.69;1863737;77;21064;-58
2023/01/09 10:07:43;;;;;;;17.65;6.30;;;;;;;4.98;36.55;102774.09;1863341;75;21542;-57
2023/01/09 10:10:19;;;;;;;8.38;4.20;;;;;;;5.60;36.08;102776.34;1863892;77;21139;-57
2023/01/09 10:16:09;;;;;;;10.88;5.03;;;;;;;4.15;37.34;102779.09;1863802;77;21044;-55
2023/01/09 10:18:57;;;;;;;12.98;4.60;;;;;;;2.50;39.03;102771.72;1862331;77;21137;-57
2023/01/09 10:21:43;;;;;;;6.92;3.95;;;;;;;2.02;39.95;102772.12;1856056;77;21047;-55
2023/01/09 10:24:39;;;;;;;11.40;5.10;;;;;;;3.37;38.79;102764.34;1864453;77;21059;-55
2023/01/09 10:27:26;;;;;;;13.80;5.62;;;;;;;5.21;36.82;102753.99;1863130;77;21024;-55
2023/01/09 10:30:13;;;;;;;10.40;4.80;;;;;;;6.27;35.35;102749.31;1863602;76;21102;-57
2023/01/09 10:32:50;;;;;;;9.05;2.90;;;;;;;6.54;34.58;102743.50;1859751;75;21043;-57
2023/01/09 10:35:30;;;;;;;17.80;6.05;;;;;;;6.79;34.41;102749.85;1863727;77;21522;-57
2023/01/09 10:38:02;;;;;;;15.78;5.87;;;;;;;7.01;34.24;102745.67;1856004;77;21722;-57
2023/01/09 10:40:33;;;;;;;8.63;4.25;;;;;;;7.08;34.07;102738.72;1863670;76;21530;-57
2023/01/09 10:43:17;;;;;;;9.85;4.22;;;;;;;6.56;34.39;102736.53;1862971;76;21114;-58
2023/01/09 10:45:52;;;;;;;7.83;4.17;;;;;;;5.57;34.71;102742.31;1863642;77;21487;-56
2023/01/09 10:48:30;;;;;;;12.90;5.83;;;;;;;5.34;34.70;102739.39;1863986;77;21040;-55
2023/01/09 10:50:59;;;;;;;13.58;5.45;;;;;;;5.59;34.26;102745.85;1863967;77;21044;-57
2023/01/09 10:53:30;;;;;;;12.60;5.12;;;;;;;5.63;34.08;102735.02;1862973;77;21044;-58
2023/01/09 10:56:21;;;;;;;5.47;2.72;;;;;;;5.59;34.18;102736.27;1862992;76;21213;-55
2023/01/09 10:58:51;;;;;;;10.03;3.80;;;;;;;5.72;34.17;102732.08;1863846;77;21078;-57
2023/01/09 11:01:26;;;;;;;6.83;3.33;;;;;;;5.96;34.27;102728.06;1863830;77;21568;-57
2023/01/09 11:03:57;;;;;;;7.25;3.70;;;;;;;5.80;34.96;102734.35;1863636;77;21052;-59
2023/01/09 11:06:27;;;;;;;4.30;2.80;;;;;;;6.04;34.54;102726.39;1863804;77;21032;-58
2023/01/09 11:09:01;;;;;;;8.75;3.90;;;;;;;5.49;34.83;102726.97;1863767;75;21064;-58
2023/01/09 11:11:39;;;;;;;6.67;3.27;;;;;;;5.09;35.79;102723.76;1862075;76;21059;-55
2023/01/09 11:14:17;;;;;;;13.75;4.90;;;;;;;5.71;35.13;102725.08;1854880;76;21062;-56
2023/01/09 11:16:54;;;;;;;6.80;3.25;;;;;;;6.14;34.52;102715.60;1854813;77;21105;-55
2023/01/09 11:19:24;;;;;;;4.97;2.95;;;;;;;6.35;34.22;102717.58;1854606;77;21062;-55
2023/01/09 11:22:07;;;;;;;8.85;4.37;;;;;;;6.18;34.13;102720.90;1854755;77;21493;-57
2023/01/09 11:24:36;;;;;;;6.40;3.62;;;;;;;6.08;34.29;102728.18;1854946;77;21027;-56
2023/01/09 11:27:23;;;;;;;9.25;4.05;;;;;;;6.24;34.23;102723.14;1854656;77;21517;-56
2023/01/09 11:30:19;;;;;;;17.85;6.47;;;;;;;5.61;34.99;102718.87;1853982;77;21066;-56
2023/01/09 11:32:48;;;;;;;19.23;7.35;;;;;;;4.13;37.35;102719.92;1797700;77;21062;-56
2023/01/09 11:35:22;;;;;;;12.93;5.83;;;;;;;4.53;37.24;102712.84;1854710;77;21120;-56
2023/01/09 11:37:53;;;;;;;17.05;7.15;;;;;;;5.30;36.27;102714.95;1854444;74;21171;-56
2023/01/09 11:40:23;;;;;;;10.50;3.95;;;;;;;5.65;35.61;102709.33;1852878;75;21152;-56
2023/01/09 11:43:12;;;;;;;9.90;4.40;;;;;;;5.76;35.42;102706.42;1854703;77;21497;-56
2023/01/09 11:45:50;;;;;;;9.13;3.90;;;;;;;5.37;35.28;102717.23;1854753;77;21509;-57
2023/01/09 11:48:31;;;;;;;8.55;4.22;;;;;;;5.36;35.65;102720.25;1854634;77;21030;-59
2023/01/09 11:51:02;;;;;;;16.55;6.28;;;;;;;4.97;35.71;102710.09;1848630;76;21027;-59
2023/01/09 11:53:50;;;;;;;9.28;4.05;;;;;;;4.72;36.31;102699.67;1855362;76;21191;-56
2023/01/09 11:56:19;;;;;;;15.90;6.62;;;;;;;4.54;36.52;102700.27;1854157;77;21014;-57
2023/01/09 11:58:47;;;;;;;17.15;2.70;;;;;;;4.04;36.90;102705.87;1854895;77;21022;-55
2023/01/09 12:01:31;;;;;;;7.03;4.03;;;;;;;3.85;37.27;102720.27;1851509;76;21254;-57